Wardeh — ODUS — position and weather

sailwx.info

Track history (hours):
 
Tides and Currents Weather Stations Pressure Air Temp Water Temp Dewpoint Dewpoint Depression Visibility Wind Speed Wind Dir Waves Ship Positions

Wardeh

Last reported at 2016-Sep-14 21:32 UTC. Time now 2016-Oct-01 15:32 UTC.
Position S 26°45' W 045°56'.
Warning: this ship's position is 16 days out of date.

; draft 7 m.

Type: Cargo ship. MMSI: 450522000.

Date/timePositionNaut miles runAvg speedWind from/ knotsBaromVisibWave heightAir tempDewpointWater temp
2016-Sep-14 21:32S 26°45' W 045°56'26214.2
2016-Sep-14 03:08S 23°09' W 043°13'19 4.0
2016-Sep-13 22:31S 22°51' W 043°09'0 0.0
2016-Sep-13 20:31S 22°51' W 043°09'0 0.0
2016-Sep-13 18:31S 22°51' W 043°09'0 0.0
2016-Sep-13 17:31S 22°51' W 043°09'0 0.0
2016-Sep-13 16:31S 22°51' W 043°09'0 0.0
2016-Sep-13 11:31S 22°51' W 043°09'2 1.1
2016-Sep-13 09:33S 22°53' W 043°09'23 4.5
2016-Sep-13 04:28S 23°12' W 042°56'5 2.4
2016-Sep-13 02:33S 23°11' W 042°51'11 3.8
2016-Sep-12 23:33S 23°08' W 043°03'7 3.1
2016-Sep-12 21:24S 23°09' W 042°56'9 4.9
2016-Sep-12 19:33S 23°05' W 043°05'  
Track history (hours):
 
Tides and Currents Weather Stations Pressure Air Temp Water Temp Dewpoint Dewpoint Depression Visibility Wind Speed Wind Dir Waves Ship Positions

Wardeh

Last reported at 2016-Sep-14 21:32 UTC. Time now 2016-Oct-01 15:32 UTC.
Position S 26°45' W 045°56'.
Warning: this ship's position is 16 days out of date.

; draft 7 m.

Type: Cargo ship. MMSI: 450522000.

Date/timePositionNaut miles runAvg speedWind from/ knotsBaromVisibWave heightAir tempDewpointWater temp
2016-Sep-14 21:32S 26°45' W 045°56'26214.2
2016-Sep-14 03:08S 23°09' W 043°13'19 4.0
2016-Sep-13 22:31S 22°51' W 043°09'0 0.0
2016-Sep-13 20:31S 22°51' W 043°09'0 0.0
2016-Sep-13 18:31S 22°51' W 043°09'0 0.0
2016-Sep-13 17:31S 22°51' W 043°09'0 0.0
2016-Sep-13 16:31S 22°51' W 043°09'0 0.0
2016-Sep-13 11:31S 22°51' W 043°09'2 1.1
2016-Sep-13 09:33S 22°53' W 043°09'23 4.5
2016-Sep-13 04:28S 23°12' W 042°56'5 2.4
2016-Sep-13 02:33S 23°11' W 042°51'11 3.8
2016-Sep-12 23:33S 23°08' W 043°03'7 3.1
2016-Sep-12 21:24S 23°09' W 042°56'9 4.9
2016-Sep-12 19:33S 23°05' W 043°05'  

Dump ship's entire track history